sensor_id;sensor_type;location;lat;lon;timestamp;P1;durP1;ratioP1;P2;durP2;ratioP2
27543;SDS011;17996;51.056;3.656;2023-02-18T00:00:15;28.40;;;21.15;;
27543;SDS011;17996;51.056;3.656;2023-02-18T00:02:44;30.90;;;22.23;;
27543;SDS011;17996;51.056;3.656;2023-02-18T00:05:10;25.35;;;19.67;;
27543;SDS011;17996;51.056;3.656;2023-02-18T00:07:37;26.90;;;20.63;;
27543;SDS011;17996;51.056;3.656;2023-02-18T00:10:05;28.58;;;19.50;;
27543;SDS011;17996;51.056;3.656;2023-02-18T00:12:32;25.23;;;17.95;;
27543;SDS011;17996;51.056;3.656;2023-02-18T00:14:58;21.60;;;16.35;;
27543;SDS011;17996;51.056;3.656;2023-02-18T00:17:24;19.17;;;14.13;;
27543;SDS011;17996;51.056;3.656;2023-02-18T00:19:49;19.58;;;13.80;;
27543;SDS011;17996;51.056;3.656;2023-02-18T00:22:15;16.25;;;12.40;;
27543;SDS011;17996;51.056;3.656;2023-02-18T00:24:41;18.67;;;11.43;;
27543;SDS011;17996;51.056;3.656;2023-02-18T00:27:06;14.00;;;10.63;;
27543;SDS011;17996;51.056;3.656;2023-02-18T00:29:32;16.35;;;11.07;;
27543;SDS011;17996;51.056;3.656;2023-02-18T00:31:58;18.73;;;11.18;;
27543;SDS011;17996;51.056;3.656;2023-02-18T00:34:24;13.77;;;10.98;;
27543;SDS011;17996;51.056;3.656;2023-02-18T00:36:49;14.52;;;11.30;;
27543;SDS011;17996;51.056;3.656;2023-02-18T00:39:15;16.33;;;12.00;;
27543;SDS011;17996;51.056;3.656;2023-02-18T00:41:40;19.98;;;13.27;;
27543;SDS011;17996;51.056;3.656;2023-02-18T00:44:07;16.30;;;13.32;;
27543;SDS011;17996;51.056;3.656;2023-02-18T00:46:34;17.52;;;13.90;;
27543;SDS011;17996;51.056;3.656;2023-02-18T00:49:00;15.55;;;12.50;;
27543;SDS011;17996;51.056;3.656;2023-02-18T00:51:26;16.73;;;14.00;;
27543;SDS011;17996;51.056;3.656;2023-02-18T00:53:51;21.05;;;14.88;;
27543;SDS011;17996;51.056;3.656;2023-02-18T00:56:17;23.02;;;14.15;;
27543;SDS011;17996;51.056;3.656;2023-02-18T00:58:43;19.85;;;13.05;;
27543;SDS011;17996;51.056;3.656;2023-02-18T01:01:09;21.92;;;12.05;;
27543;SDS011;17996;51.056;3.656;2023-02-18T01:03:36;15.88;;;12.55;;
27543;SDS011;17996;51.056;3.656;2023-02-18T01:06:03;14.45;;;10.52;;
27543;SDS011;17996;51.056;3.656;2023-02-18T01:08:30;15.35;;;11.70;;
27543;SDS011;17996;51.056;3.656;2023-02-18T01:10:56;15.57;;;11.52;;
27543;SDS011;17996;51.056;3.656;2023-02-18T01:13:23;14.23;;;11.50;;
27543;SDS011;17996;51.056;3.656;2023-02-18T01:15:49;15.02;;;12.43;;
27543;SDS011;17996;51.056;3.656;2023-02-18T01:18:15;17.02;;;12.65;;
27543;SDS011;17996;51.056;3.656;2023-02-18T01:20:41;15.52;;;11.75;;
27543;SDS011;17996;51.056;3.656;2023-02-18T01:23:08;17.70;;;13.15;;
27543;SDS011;17996;51.056;3.656;2023-02-18T01:25:34;20.30;;;13.70;;
27543;SDS011;17996;51.056;3.656;2023-02-18T01:28:02;18.08;;;12.57;;
27543;SDS011;17996;51.056;3.656;2023-02-18T01:30:28;15.82;;;12.95;;
27543;SDS011;17996;51.056;3.656;2023-02-18T01:32:55;16.17;;;13.00;;
27543;SDS011;17996;51.056;3.656;2023-02-18T01:35:21;16.77;;;12.93;;
27543;SDS011;17996;51.056;3.656;2023-02-18T01:37:48;16.83;;;12.27;;
27543;SDS011;17996;51.056;3.656;2023-02-18T01:40:15;16.38;;;12.05;;
27543;SDS011;17996;51.056;3.656;2023-02-18T01:42:43;15.95;;;11.95;;
27543;SDS011;17996;51.056;3.656;2023-02-18T01:47:53;15.25;;;11.15;;
27543;SDS011;17996;51.056;3.656;2023-02-18T01:50:19;12.57;;;10.65;;
27543;SDS011;17996;51.056;3.656;2023-02-18T01:52:44;13.75;;;10.23;;
27543;SDS011;17996;51.056;3.656;2023-02-18T01:55:11;14.02;;;11.45;;
27543;SDS011;17996;51.056;3.656;2023-02-18T01:57:36;12.07;;;9.85;;
27543;SDS011;17996;51.056;3.656;2023-02-18T02:02:31;12.48;;;11.18;;
27543;SDS011;17996;51.056;3.656;2023-02-18T02:05:01;15.88;;;11.68;;
27543;SDS011;17996;51.056;3.656;2023-02-18T02:07:27;14.10;;;11.55;;
27543;SDS011;17996;51.056;3.656;2023-02-18T02:09:53;12.25;;;10.05;;
27543;SDS011;17996;51.056;3.656;2023-02-18T02:15:33;13.50;;;9.98;;
27543;SDS011;17996;51.056;3.656;2023-02-18T02:27:09;8.43;;;6.03;;
27543;SDS011;17996;51.056;3.656;2023-02-18T02:35:03;10.10;;;5.25;;
27543;SDS011;17996;51.056;3.656;2023-02-18T02:37:45;7.88;;;5.40;;
27543;SDS011;17996;51.056;3.656;2023-02-18T02:43:28;7.78;;;5.72;;
27543;SDS011;17996;51.056;3.656;2023-02-18T02:46:18;11.70;;;5.80;;
27543;SDS011;17996;51.056;3.656;2023-02-18T02:48:51;9.05;;;5.90;;
27543;SDS011;17996;51.056;3.656;2023-02-18T02:51:40;8.57;;;5.53;;
27543;SDS011;17996;51.056;3.656;2023-02-18T02:54:16;8.10;;;5.32;;
27543;SDS011;17996;51.056;3.656;2023-02-18T02:56:44;7.47;;;4.43;;
27543;SDS011;17996;51.056;3.656;2023-02-18T02:59:11;11.80;;;5.95;;
27543;SDS011;17996;51.056;3.656;2023-02-18T03:04:20;11.55;;;5.75;;
27543;SDS011;17996;51.056;3.656;2023-02-18T03:07:45;7.32;;;5.60;;
27543;SDS011;17996;51.056;3.656;2023-02-18T03:13:17;10.60;;;6.78;;
27543;SDS011;17996;51.056;3.656;2023-02-18T03:18:47;10.63;;;7.80;;
27543;SDS011;17996;51.056;3.656;2023-02-18T03:21:25;7.70;;;7.00;;
27543;SDS011;17996;51.056;3.656;2023-02-18T03:26:44;10.57;;;6.80;;
27543;SDS011;17996;51.056;3.656;2023-02-18T03:29:14;7.75;;;6.93;;
27543;SDS011;17996;51.056;3.656;2023-02-18T03:31:41;7.93;;;6.80;;
27543;SDS011;17996;51.056;3.656;2023-02-18T03:34:10;6.97;;;6.27;;
27543;SDS011;17996;51.056;3.656;2023-02-18T03:36:39;10.60;;;7.28;;
27543;SDS011;17996;51.056;3.656;2023-02-18T03:39:07;8.52;;;6.38;;
27543;SDS011;17996;51.056;3.656;2023-02-18T03:41:40;10.45;;;5.95;;
27543;SDS011;17996;51.056;3.656;2023-02-18T03:44:06;8.65;;;5.32;;
27543;SDS011;17996;51.056;3.656;2023-02-18T03:46:33;9.40;;;5.50;;
27543;SDS011;17996;51.056;3.656;2023-02-18T03:49:00;6.60;;;5.70;;
27543;SDS011;17996;51.056;3.656;2023-02-18T03:51:26;6.00;;;5.25;;
27543;SDS011;17996;51.056;3.656;2023-02-18T03:53:52;6.50;;;5.80;;
27543;SDS011;17996;51.056;3.656;2023-02-18T03:56:18;5.88;;;5.35;;
27543;SDS011;17996;51.056;3.656;2023-02-18T03:58:44;8.70;;;5.40;;
27543;SDS011;17996;51.056;3.656;2023-02-18T04:01:10;6.10;;;5.05;;
27543;SDS011;17996;51.056;3.656;2023-02-18T04:03:36;11.15;;;5.63;;
27543;SDS011;17996;51.056;3.656;2023-02-18T04:06:02;7.03;;;5.72;;
27543;SDS011;17996;51.056;3.656;2023-02-18T04:08:27;6.20;;;5.60;;
27543;SDS011;17996;51.056;3.656;2023-02-18T04:10:53;9.60;;;5.85;;
27543;SDS011;17996;51.056;3.656;2023-02-18T04:13:19;6.28;;;5.43;;
27543;SDS011;17996;51.056;3.656;2023-02-18T04:15:45;6.07;;;5.40;;
27543;SDS011;17996;51.056;3.656;2023-02-18T04:18:13;6.22;;;5.63;;
27543;SDS011;17996;51.056;3.656;2023-02-18T04:20:39;8.23;;;5.38;;
27543;SDS011;17996;51.056;3.656;2023-02-18T04:23:05;5.30;;;4.80;;
27543;SDS011;17996;51.056;3.656;2023-02-18T04:25:30;5.63;;;4.93;;
27543;SDS011;17996;51.056;3.656;2023-02-18T04:27:56;6.88;;;4.53;;
27543;SDS011;17996;51.056;3.656;2023-02-18T04:30:22;7.32;;;4.85;;
27543;SDS011;17996;51.056;3.656;2023-02-18T04:32:48;7.10;;;5.70;;
27543;SDS011;17996;51.056;3.656;2023-02-18T04:35:13;7.50;;;5.50;;
27543;SDS011;17996;51.056;3.656;2023-02-18T04:37:39;6.07;;;5.55;;
27543;SDS011;17996;51.056;3.656;2023-02-18T04:40:05;6.35;;;5.75;;
27543;SDS011;17996;51.056;3.656;2023-02-18T04:42:32;6.05;;;5.43;;
27543;SDS011;17996;51.056;3.656;2023-02-18T04:44:57;10.07;;;6.47;;
27543;SDS011;17996;51.056;3.656;2023-02-18T04:47:23;12.30;;;7.00;;
27543;SDS011;17996;51.056;3.656;2023-02-18T04:49:49;10.70;;;7.30;;
27543;SDS011;17996;51.056;3.656;2023-02-18T04:52:15;7.75;;;6.50;;
27543;SDS011;17996;51.056;3.656;2023-02-18T04:54:41;9.57;;;7.25;;
27543;SDS011;17996;51.056;3.656;2023-02-18T04:57:07;9.20;;;6.90;;
27543;SDS011;17996;51.056;3.656;2023-02-18T04:59:32;9.65;;;7.22;;
27543;SDS011;17996;51.056;3.656;2023-02-18T05:01:58;8.15;;;6.60;;
27543;SDS011;17996;51.056;3.656;2023-02-18T05:04:23;12.75;;;7.18;;
27543;SDS011;17996;51.056;3.656;2023-02-18T05:06:49;8.48;;;6.70;;
27543;SDS011;17996;51.056;3.656;2023-02-18T05:09:15;13.30;;;7.45;;
27543;SDS011;17996;51.056;3.656;2023-02-18T05:11:41;12.40;;;7.32;;
27543;SDS011;17996;51.056;3.656;2023-02-18T05:14:07;14.73;;;6.55;;
27543;SDS011;17996;51.056;3.656;2023-02-18T05:16:32;10.10;;;4.97;;
27543;SDS011;17996;51.056;3.656;2023-02-18T05:18:58;10.07;;;4.95;;
27543;SDS011;17996;51.056;3.656;2023-02-18T05:21:24;11.43;;;4.75;;
27543;SDS011;17996;51.056;3.656;2023-02-18T05:23:50;21.08;;;4.63;;
27543;SDS011;17996;51.056;3.656;2023-02-18T05:26:16;23.25;;;4.50;;
27543;SDS011;17996;51.056;3.656;2023-02-18T05:28:42;16.58;;;4.25;;
27543;SDS011;17996;51.056;3.656;2023-02-18T05:31:08;19.02;;;3.80;;
27543;SDS011;17996;51.056;3.656;2023-02-18T05:33:34;17.23;;;3.88;;
27543;SDS011;17996;51.056;3.656;2023-02-18T05:35:59;13.02;;;3.50;;
27543;SDS011;17996;51.056;3.656;2023-02-18T05:38:25;18.92;;;3.92;;
27543;SDS011;17996;51.056;3.656;2023-02-18T05:40:51;25.80;;;4.15;;
27543;SDS011;17996;51.056;3.656;2023-02-18T05:43:16;21.35;;;4.07;;
27543;SDS011;17996;51.056;3.656;2023-02-18T05:45:42;22.02;;;4.63;;
27543;SDS011;17996;51.056;3.656;2023-02-18T05:48:08;24.35;;;4.07;;
27543;SDS011;17996;51.056;3.656;2023-02-18T05:50:33;18.05;;;5.10;;
27543;SDS011;17996;51.056;3.656;2023-02-18T05:52:59;30.40;;;3.78;;
27543;SDS011;17996;51.056;3.656;2023-02-18T05:55:25;20.83;;;4.07;;
27543;SDS011;17996;51.056;3.656;2023-02-18T05:57:51;19.40;;;3.30;;
27543;SDS011;17996;51.056;3.656;2023-02-18T06:00:16;24.98;;;4.65;;
27543;SDS011;17996;51.056;3.656;2023-02-18T06:02:43;24.10;;;3.53;;
27543;SDS011;17996;51.056;3.656;2023-02-18T06:05:09;28.45;;;4.03;;
27543;SDS011;17996;51.056;3.656;2023-02-18T06:07:34;17.60;;;4.47;;
27543;SDS011;17996;51.056;3.656;2023-02-18T06:10:00;14.18;;;3.38;;
27543;SDS011;17996;51.056;3.656;2023-02-18T06:12:27;21.65;;;3.25;;
27543;SDS011;17996;51.056;3.656;2023-02-18T06:14:52;23.27;;;4.07;;
27543;SDS011;17996;51.056;3.656;2023-02-18T06:17:18;26.27;;;4.38;;
27543;SDS011;17996;51.056;3.656;2023-02-18T06:19:44;20.15;;;3.55;;
27543;SDS011;17996;51.056;3.656;2023-02-18T06:22:10;18.63;;;3.75;;
27543;SDS011;17996;51.056;3.656;2023-02-18T06:24:36;18.38;;;4.65;;
27543;SDS011;17996;51.056;3.656;2023-02-18T06:27:02;11.88;;;3.03;;
27543;SDS011;17996;51.056;3.656;2023-02-18T06:29:28;26.83;;;3.58;;
27543;SDS011;17996;51.056;3.656;2023-02-18T06:31:55;24.85;;;3.08;;
27543;SDS011;17996;51.056;3.656;2023-02-18T06:34:21;13.88;;;2.75;;
27543;SDS011;17996;51.056;3.656;2023-02-18T06:36:47;12.77;;;2.38;;
27543;SDS011;17996;51.056;3.656;2023-02-18T06:39:13;16.58;;;4.03;;
27543;SDS011;17996;51.056;3.656;2023-02-18T06:41:39;22.73;;;3.45;;
27543;SDS011;17996;51.056;3.656;2023-02-18T06:44:05;20.30;;;3.67;;
27543;SDS011;17996;51.056;3.656;2023-02-18T06:46:31;18.38;;;3.45;;
27543;SDS011;17996;51.056;3.656;2023-02-18T06:48:56;21.95;;;3.60;;
27543;SDS011;17996;51.056;3.656;2023-02-18T06:51:22;14.02;;;3.15;;
27543;SDS011;17996;51.056;3.656;2023-02-18T06:53:48;20.00;;;4.05;;
27543;SDS011;17996;51.056;3.656;2023-02-18T06:56:14;19.08;;;3.67;;
27543;SDS011;17996;51.056;3.656;2023-02-18T06:58:40;13.55;;;3.13;;
27543;SDS011;17996;51.056;3.656;2023-02-18T07:01:05;19.65;;;5.50;;
27543;SDS011;17996;51.056;3.656;2023-02-18T07:03:31;18.67;;;3.40;;
27543;SDS011;17996;51.056;3.656;2023-02-18T07:05:56;21.75;;;3.25;;
27543;SDS011;17996;51.056;3.656;2023-02-18T07:08:22;19.65;;;3.60;;
27543;SDS011;17996;51.056;3.656;2023-02-18T07:10:48;11.48;;;2.97;;
27543;SDS011;17996;51.056;3.656;2023-02-18T07:13:14;26.98;;;4.03;;
27543;SDS011;17996;51.056;3.656;2023-02-18T07:15:40;17.38;;;3.40;;
27543;SDS011;17996;51.056;3.656;2023-02-18T07:18:06;17.70;;;3.25;;
27543;SDS011;17996;51.056;3.656;2023-02-18T07:20:31;17.45;;;2.88;;
27543;SDS011;17996;51.056;3.656;2023-02-18T07:22:57;17.52;;;2.90;;
27543;SDS011;17996;51.056;3.656;2023-02-18T07:25:23;17.98;;;4.18;;
27543;SDS011;17996;51.056;3.656;2023-02-18T07:27:49;22.08;;;3.65;;
27543;SDS011;17996;51.056;3.656;2023-02-18T07:30:15;14.43;;;2.90;;
27543;SDS011;17996;51.056;3.656;2023-02-18T07:32:41;14.13;;;2.88;;
27543;SDS011;17996;51.056;3.656;2023-02-18T07:35:08;20.92;;;3.72;;
27543;SDS011;17996;51.056;3.656;2023-02-18T07:37:37;24.67;;;2.88;;
27543;SDS011;17996;51.056;3.656;2023-02-18T07:40:02;18.00;;;3.20;;
27543;SDS011;17996;51.056;3.656;2023-02-18T07:42:28;14.77;;;2.60;;
27543;SDS011;17996;51.056;3.656;2023-02-18T07:44:54;21.48;;;3.50;;
27543;SDS011;17996;51.056;3.656;2023-02-18T07:47:20;23.52;;;3.03;;
27543;SDS011;17996;51.056;3.656;2023-02-18T07:49:45;18.02;;;3.35;;
27543;SDS011;17996;51.056;3.656;2023-02-18T07:52:12;17.38;;;3.13;;
27543;SDS011;17996;51.056;3.656;2023-02-18T07:54:38;17.02;;;3.30;;
27543;SDS011;17996;51.056;3.656;2023-02-18T07:57:04;19.77;;;3.88;;
27543;SDS011;17996;51.056;3.656;2023-02-18T07:59:29;17.08;;;3.10;;
27543;SDS011;17996;51.056;3.656;2023-02-18T08:01:55;30.48;;;4.03;;
27543;SDS011;17996;51.056;3.656;2023-02-18T08:04:21;18.75;;;3.47;;
27543;SDS011;17996;51.056;3.656;2023-02-18T08:06:46;19.55;;;4.70;;
27543;SDS011;17996;51.056;3.656;2023-02-18T08:09:14;13.77;;;2.80;;
27543;SDS011;17996;51.056;3.656;2023-02-18T08:11:40;17.40;;;2.40;;
27543;SDS011;17996;51.056;3.656;2023-02-18T08:14:06;16.45;;;2.30;;
27543;SDS011;17996;51.056;3.656;2023-02-18T08:16:32;19.48;;;2.83;;
27543;SDS011;17996;51.056;3.656;2023-02-18T08:18:58;18.20;;;3.10;;
27543;SDS011;17996;51.056;3.656;2023-02-18T08:21:25;17.73;;;3.10;;
27543;SDS011;17996;51.056;3.656;2023-02-18T08:23:51;17.30;;;2.63;;
27543;SDS011;17996;51.056;3.656;2023-02-18T08:26:17;14.90;;;2.33;;
27543;SDS011;17996;51.056;3.656;2023-02-18T08:28:44;12.57;;;2.78;;
27543;SDS011;17996;51.056;3.656;2023-02-18T08:31:21;13.10;;;2.20;;
27543;SDS011;17996;51.056;3.656;2023-02-18T08:33:49;16.67;;;3.28;;
27543;SDS011;17996;51.056;3.656;2023-02-18T08:36:16;16.45;;;2.42;;
27543;SDS011;17996;51.056;3.656;2023-02-18T08:38:41;15.77;;;3.47;;
27543;SDS011;17996;51.056;3.656;2023-02-18T08:41:07;11.93;;;2.97;;
27543;SDS011;17996;51.056;3.656;2023-02-18T08:43:33;15.35;;;2.50;;
27543;SDS011;17996;51.056;3.656;2023-02-18T08:46:00;17.90;;;3.28;;
27543;SDS011;17996;51.056;3.656;2023-02-18T08:48:27;21.33;;;3.00;;
27543;SDS011;17996;51.056;3.656;2023-02-18T08:50:53;18.08;;;3.65;;
27543;SDS011;17996;51.056;3.656;2023-02-18T08:53:19;14.35;;;3.15;;
27543;SDS011;17996;51.056;3.656;2023-02-18T08:55:45;13.70;;;2.72;;
27543;SDS011;17996;51.056;3.656;2023-02-18T08:58:10;14.88;;;2.88;;
27543;SDS011;17996;51.056;3.656;2023-02-18T09:00:37;16.15;;;2.75;;
27543;SDS011;17996;51.056;3.656;2023-02-18T09:03:03;17.38;;;3.40;;
27543;SDS011;17996;51.056;3.656;2023-02-18T09:05:29;16.05;;;2.88;;
27543;SDS011;17996;51.056;3.656;2023-02-18T09:07:55;25.25;;;3.20;;
27543;SDS011;17996;51.056;3.656;2023-02-18T09:10:21;15.13;;;3.83;;
27543;SDS011;17996;51.056;3.656;2023-02-18T09:12:47;20.55;;;3.15;;
27543;SDS011;17996;51.056;3.656;2023-02-18T09:15:12;19.23;;;4.72;;
27543;SDS011;17996;51.056;3.656;2023-02-18T09:17:38;16.38;;;3.92;;
27543;SDS011;17996;51.056;3.656;2023-02-18T09:20:04;13.13;;;2.67;;
27543;SDS011;17996;51.056;3.656;2023-02-18T09:22:30;11.27;;;2.60;;
27543;SDS011;17996;51.056;3.656;2023-02-18T09:24:56;19.35;;;3.28;;
27543;SDS011;17996;51.056;3.656;2023-02-18T09:27:22;13.93;;;2.42;;
27543;SDS011;17996;51.056;3.656;2023-02-18T09:29:48;16.13;;;3.05;;
27543;SDS011;17996;51.056;3.656;2023-02-18T09:32:14;12.30;;;2.35;;
27543;SDS011;17996;51.056;3.656;2023-02-18T09:34:42;20.17;;;3.42;;
27543;SDS011;17996;51.056;3.656;2023-02-18T09:37:08;14.95;;;2.70;;
27543;SDS011;17996;51.056;3.656;2023-02-18T09:39:33;16.85;;;3.90;;
27543;SDS011;17996;51.056;3.656;2023-02-18T09:42:01;16.85;;;3.30;;
27543;SDS011;17996;51.056;3.656;2023-02-18T09:49:25;12.45;;;2.50;;
27543;SDS011;17996;51.056;3.656;2023-02-18T09:51:55;17.17;;;3.90;;
27543;SDS011;17996;51.056;3.656;2023-02-18T09:54:25;13.75;;;2.95;;
27543;SDS011;17996;51.056;3.656;2023-02-18T09:56:51;15.48;;;3.42;;
27543;SDS011;17996;51.056;3.656;2023-02-18T09:59:19;15.15;;;2.45;;
27543;SDS011;17996;51.056;3.656;2023-02-18T10:01:48;20.52;;;3.75;;
27543;SDS011;17996;51.056;3.656;2023-02-18T10:06:45;16.88;;;2.80;;
27543;SDS011;17996;51.056;3.656;2023-02-18T10:09:18;25.60;;;4.28;;
27543;SDS011;17996;51.056;3.656;2023-02-18T10:11:47;14.95;;;4.22;;
27543;SDS011;17996;51.056;3.656;2023-02-18T10:14:19;10.98;;;3.05;;
27543;SDS011;17996;51.056;3.656;2023-02-18T10:16:45;19.20;;;3.60;;
27543;SDS011;17996;51.056;3.656;2023-02-18T10:19:23;18.08;;;2.85;;
27543;SDS011;17996;51.056;3.656;2023-02-18T10:22:03;25.42;;;4.05;;
27543;SDS011;17996;51.056;3.656;2023-02-18T10:27:04;22.92;;;3.45;;
27543;SDS011;17996;51.056;3.656;2023-02-18T10:29:31;24.87;;;4.40;;
27543;SDS011;17996;51.056;3.656;2023-02-18T10:34:48;26.75;;;3.25;;
27543;SDS011;17996;51.056;3.656;2023-02-18T10:38:01;18.10;;;3.55;;
27543;SDS011;17996;51.056;3.656;2023-02-18T10:40:50;37.13;;;5.47;;
27543;SDS011;17996;51.056;3.656;2023-02-18T10:43:46;25.35;;;4.20;;
27543;SDS011;17996;51.056;3.656;2023-02-18T10:46:41;18.67;;;3.25;;
27543;SDS011;17996;51.056;3.656;2023-02-18T10:49:33;22.13;;;3.47;;
27543;SDS011;17996;51.056;3.656;2023-02-18T10:52:22;25.30;;;4.82;;
27543;SDS011;17996;51.056;3.656;2023-02-18T10:57:23;19.67;;;3.60;;
27543;SDS011;17996;51.056;3.656;2023-02-18T10:59:54;16.23;;;3.50;;
27543;SDS011;17996;51.056;3.656;2023-02-18T11:02:23;21.50;;;3.78;;
27543;SDS011;17996;51.056;3.656;2023-02-18T11:04:53;20.30;;;3.40;;
27543;SDS011;17996;51.056;3.656;2023-02-18T11:07:21;26.42;;;4.07;;
27543;SDS011;17996;51.056;3.656;2023-02-18T11:09:54;22.13;;;4.22;;
27543;SDS011;17996;51.056;3.656;2023-02-18T11:12:23;16.67;;;3.65;;
27543;SDS011;17996;51.056;3.656;2023-02-18T11:17:39;18.88;;;3.83;;
27543;SDS011;17996;51.056;3.656;2023-02-18T11:20:26;17.35;;;3.80;;
27543;SDS011;17996;51.056;3.656;2023-02-18T11:25:34;23.27;;;3.47;;
27543;SDS011;17996;51.056;3.656;2023-02-18T11:30:43;24.58;;;4.38;;
27543;SDS011;17996;51.056;3.656;2023-02-18T11:33:17;27.42;;;4.07;;
27543;SDS011;17996;51.056;3.656;2023-02-18T11:35:53;19.85;;;3.33;;
27543;SDS011;17996;51.056;3.656;2023-02-18T11:38:22;15.32;;;3.35;;
27543;SDS011;17996;51.056;3.656;2023-02-18T11:40:55;25.05;;;3.55;;
27543;SDS011;17996;51.056;3.656;2023-02-18T11:43:26;16.45;;;2.88;;
27543;SDS011;17996;51.056;3.656;2023-02-18T11:46:08;13.98;;;3.53;;
27543;SDS011;17996;51.056;3.656;2023-02-18T11:51:00;18.15;;;3.30;;
27543;SDS011;17996;51.056;3.656;2023-02-18T11:53:31;14.77;;;2.92;;
27543;SDS011;17996;51.056;3.656;2023-02-18T11:55:59;17.55;;;4.05;;
27543;SDS011;17996;51.056;3.656;2023-02-18T11:58:36;17.80;;;3.45;;
27543;SDS011;17996;51.056;3.656;2023-02-18T12:01:05;15.27;;;2.75;;
27543;SDS011;17996;51.056;3.656;2023-02-18T12:03:41;16.55;;;3.40;;
27543;SDS011;17996;51.056;3.656;2023-02-18T12:06:21;12.02;;;2.75;;
27543;SDS011;17996;51.056;3.656;2023-02-18T12:11:55;23.58;;;3.38;;
27543;SDS011;17996;51.056;3.656;2023-02-18T12:14:24;14.45;;;2.80;;
27543;SDS011;17996;51.056;3.656;2023-02-18T12:28:08;13.88;;;3.20;;
27543;SDS011;17996;51.056;3.656;2023-02-18T12:30:52;20.35;;;2.88;;
27543;SDS011;17996;51.056;3.656;2023-02-18T12:42:51;14.68;;;3.50;;
27543;SDS011;17996;51.056;3.656;2023-02-18T12:59:31;16.13;;;4.07;;
27543;SDS011;17996;51.056;3.656;2023-02-18T13:05:03;22.60;;;4.22;;
27543;SDS011;17996;51.056;3.656;2023-02-18T13:10:04;12.27;;;3.05;;
27543;SDS011;17996;51.056;3.656;2023-02-18T13:12:47;17.58;;;3.45;;
27543;SDS011;17996;51.056;3.656;2023-02-18T13:15:42;17.10;;;3.30;;
27543;SDS011;17996;51.056;3.656;2023-02-18T13:18:23;20.98;;;4.15;;
27543;SDS011;17996;51.056;3.656;2023-02-18T13:20:58;17.08;;;4.00;;
27543;SDS011;17996;51.056;3.656;2023-02-18T13:23:29;13.25;;;3.28;;
27543;SDS011;17996;51.056;3.656;2023-02-18T13:25:58;16.70;;;3.40;;
27543;SDS011;17996;51.056;3.656;2023-02-18T13:29:27;24.08;;;3.47;;
27543;SDS011;17996;51.056;3.656;2023-02-18T13:40:22;15.05;;;4.10;;
27543;SDS011;17996;51.056;3.656;2023-02-18T13:42:54;16.75;;;3.55;;
27543;SDS011;17996;51.056;3.656;2023-02-18T13:46:02;21.75;;;4.35;;
27543;SDS011;17996;51.056;3.656;2023-02-18T13:51:15;22.40;;;4.27;;
27543;SDS011;17996;51.056;3.656;2023-02-18T13:53:52;12.48;;;3.20;;
27543;SDS011;17996;51.056;3.656;2023-02-18T13:56:34;16.70;;;4.65;;
27543;SDS011;17996;51.056;3.656;2023-02-18T13:59:08;13.80;;;3.72;;
27543;SDS011;17996;51.056;3.656;2023-02-18T14:01:42;18.55;;;3.70;;
27543;SDS011;17996;51.056;3.656;2023-02-18T14:04:54;17.20;;;4.28;;
27543;SDS011;17996;51.056;3.656;2023-02-18T14:10:00;15.18;;;3.45;;
27543;SDS011;17996;51.056;3.656;2023-02-18T14:17:43;17.85;;;4.22;;
27543;SDS011;17996;51.056;3.656;2023-02-18T14:20:32;14.95;;;3.55;;
27543;SDS011;17996;51.056;3.656;2023-02-18T14:28:34;14.85;;;3.63;;
27543;SDS011;17996;51.056;3.656;2023-02-18T14:31:04;11.00;;;3.75;;
27543;SDS011;17996;51.056;3.656;2023-02-18T14:36:25;20.35;;;4.93;;
27543;SDS011;17996;51.056;3.656;2023-02-18T14:39:20;21.83;;;4.40;;
27543;SDS011;17996;51.056;3.656;2023-02-18T14:44:52;25.10;;;5.13;;
27543;SDS011;17996;51.056;3.656;2023-02-18T14:47:28;26.00;;;6.20;;
27543;SDS011;17996;51.056;3.656;2023-02-18T14:50:15;22.25;;;5.68;;
27543;SDS011;17996;51.056;3.656;2023-02-18T14:52:46;15.25;;;4.10;;
27543;SDS011;17996;51.056;3.656;2023-02-18T14:55:31;20.70;;;4.90;;
27543;SDS011;17996;51.056;3.656;2023-02-18T14:58:02;19.90;;;4.28;;
27543;SDS011;17996;51.056;3.656;2023-02-18T15:00:41;23.65;;;4.25;;
27543;SDS011;17996;51.056;3.656;2023-02-18T15:03:10;23.05;;;4.32;;
27543;SDS011;17996;51.056;3.656;2023-02-18T15:05:39;21.58;;;4.68;;
27543;SDS011;17996;51.056;3.656;2023-02-18T15:08:06;17.90;;;5.00;;
27543;SDS011;17996;51.056;3.656;2023-02-18T15:10:48;15.60;;;3.72;;
27543;SDS011;17996;51.056;3.656;2023-02-18T15:15:53;14.73;;;3.83;;
27543;SDS011;17996;51.056;3.656;2023-02-18T15:18:22;16.90;;;4.05;;
27543;SDS011;17996;51.056;3.656;2023-02-18T15:20:56;16.08;;;4.40;;
27543;SDS011;17996;51.056;3.656;2023-02-18T15:23:25;16.85;;;3.30;;
27543;SDS011;17996;51.056;3.656;2023-02-18T15:25:52;17.90;;;3.65;;
27543;SDS011;17996;51.056;3.656;2023-02-18T15:28:38;10.02;;;3.28;;
27543;SDS011;17996;51.056;3.656;2023-02-18T15:31:26;15.95;;;3.95;;
27543;SDS011;17996;51.056;3.656;2023-02-18T15:33:54;13.90;;;3.38;;
27543;SDS011;17996;51.056;3.656;2023-02-18T15:36:20;15.25;;;3.78;;
27543;SDS011;17996;51.056;3.656;2023-02-18T15:38:46;17.63;;;4.45;;
27543;SDS011;17996;51.056;3.656;2023-02-18T15:41:15;10.77;;;3.17;;
27543;SDS011;17996;51.056;3.656;2023-02-18T15:43:56;9.43;;;3.72;;
27543;SDS011;17996;51.056;3.656;2023-02-18T15:46:28;17.75;;;3.65;;
27543;SDS011;17996;51.056;3.656;2023-02-18T15:48:55;12.93;;;3.55;;
27543;SDS011;17996;51.056;3.656;2023-02-18T15:51:24;15.27;;;4.03;;
27543;SDS011;17996;51.056;3.656;2023-02-18T15:53:56;12.73;;;3.63;;
27543;SDS011;17996;51.056;3.656;2023-02-18T15:56:36;12.93;;;3.35;;
27543;SDS011;17996;51.056;3.656;2023-02-18T15:59:18;17.25;;;3.80;;
27543;SDS011;17996;51.056;3.656;2023-02-18T16:01:51;13.00;;;3.45;;
27543;SDS011;17996;51.056;3.656;2023-02-18T16:04:31;10.90;;;3.53;;
27543;SDS011;17996;51.056;3.656;2023-02-18T16:06:59;11.00;;;3.63;;
27543;SDS011;17996;51.056;3.656;2023-02-18T16:09:31;22.77;;;4.25;;
27543;SDS011;17996;51.056;3.656;2023-02-18T16:11:58;17.03;;;3.60;;
27543;SDS011;17996;51.056;3.656;2023-02-18T16:17:05;14.60;;;4.32;;
27543;SDS011;17996;51.056;3.656;2023-02-18T16:19:59;19.60;;;4.50;;
27543;SDS011;17996;51.056;3.656;2023-02-18T16:24:58;17.08;;;5.32;;
27543;SDS011;17996;51.056;3.656;2023-02-18T16:27:33;16.67;;;5.83;;
27543;SDS011;17996;51.056;3.656;2023-02-18T16:30:14;17.63;;;5.43;;
27543;SDS011;17996;51.056;3.656;2023-02-18T16:32:42;22.27;;;7.05;;
27543;SDS011;17996;51.056;3.656;2023-02-18T16:35:08;18.95;;;6.32;;
27543;SDS011;17996;51.056;3.656;2023-02-18T16:37:33;20.08;;;6.28;;
27543;SDS011;17996;51.056;3.656;2023-02-18T16:45:22;13.55;;;6.00;;
27543;SDS011;17996;51.056;3.656;2023-02-18T16:47:55;18.20;;;6.07;;
27543;SDS011;17996;51.056;3.656;2023-02-18T16:50:22;16.75;;;5.43;;
27543;SDS011;17996;51.056;3.656;2023-02-18T16:52:48;20.30;;;6.57;;
27543;SDS011;17996;51.056;3.656;2023-02-18T16:55:18;19.98;;;5.50;;
27543;SDS011;17996;51.056;3.656;2023-02-18T16:57:45;12.75;;;5.68;;
27543;SDS011;17996;51.056;3.656;2023-02-18T17:00:12;18.73;;;6.20;;
27543;SDS011;17996;51.056;3.656;2023-02-18T17:02:39;20.80;;;6.78;;
27543;SDS011;17996;51.056;3.656;2023-02-18T17:05:05;31.20;;;8.73;;
27543;SDS011;17996;51.056;3.656;2023-02-18T17:07:31;20.67;;;8.13;;
27543;SDS011;17996;51.056;3.656;2023-02-18T17:10:00;20.48;;;6.75;;
27543;SDS011;17996;51.056;3.656;2023-02-18T17:12:25;21.70;;;6.60;;
27543;SDS011;17996;51.056;3.656;2023-02-18T17:14:51;21.25;;;7.53;;
27543;SDS011;17996;51.056;3.656;2023-02-18T17:17:17;15.60;;;6.95;;